Time;durP1;ratioP1;P1;durP2;ratioP2;P2;SDS_P1;SDS_P2;PMS_P1;PMS_P2;Temp;Humidity;BMP_temperature;BMP_pressure;BME280_temperature;BME280_humidity;BME280_pressure;Samples;Min_cycle;Max_cycle;Signal;HPM_P1;HPM_P2
2023/10/13 00:00:41;;;;;;;;;1.00;1.00;;;;;22.39;49.56;100879.48;110035;1260;19969;-39
2023/10/13 00:03:31;;;;;;;;;2.00;2.00;;;;;22.38;49.37;100873.38;110011;1267;18271;-40
2023/10/13 00:06:00;;;;;;;;;1.50;1.50;;;;;22.41;49.62;100876.16;109985;1253;21370;-40
2023/10/13 00:08:28;;;;;;;;;2.00;1.00;;;;;22.38;49.61;100875.13;110015;1254;20022;-39
2023/10/13 00:10:59;;;;;;;;;1.00;1.00;;;;;22.40;49.60;100871.74;109939;1254;19641;-39
2023/10/13 00:13:27;;;;;;;;;1.00;1.00;;;;;22.39;49.48;100870.42;109994;1260;19260;-39
2023/10/13 00:15:58;;;;;;;;;1.00;1.00;;;;;22.38;49.47;100872.13;110031;1267;19233;-40
2023/10/13 00:18:30;;;;;;;;;2.00;2.00;;;;;22.36;49.34;100871.98;110007;1252;19721;-39
2023/10/13 00:20:57;;;;;;;;;2.00;2.00;;;;;22.40;49.27;100869.55;110009;1260;19221;-40
2023/10/13 00:23:27;;;;;;;;;1.00;1.00;;;;;22.42;49.21;100871.79;110017;1252;20463;-38
2023/10/13 00:26:02;;;;;;;;;4.00;2.00;;;;;22.38;49.42;100877.64;109999;1267;18258;-39
2023/10/13 00:28:43;;;;;;;;;2.00;2.00;;;;;22.35;49.46;100880.43;109999;1267;21584;-39
2023/10/13 00:31:12;;;;;;;;;2.00;2.00;;;;;22.36;49.42;100880.59;109997;1253;19951;-39
2023/10/13 00:33:40;;;;;;;;;2.00;2.00;;;;;22.37;49.20;100879.61;110026;1251;19708;-39
2023/10/13 00:36:08;;;;;;;;;2.00;2.00;;;;;22.36;49.41;100884.14;110009;1252;19356;-39
2023/10/13 00:38:37;;;;;;;;;2.00;2.00;;;;;22.38;49.36;100884.18;110010;1252;19968;-39
2023/10/13 00:41:14;;;;;;;;;2.00;2.00;;;;;22.39;49.08;100879.39;109988;1252;21392;-38
2023/10/13 00:43:41;;;;;;;;;2.00;2.00;;;;;22.38;49.26;100879.77;109984;1253;19341;-38
2023/10/13 00:46:12;;;;;;;;;2.00;2.00;;;;;22.37;49.31;100873.98;109982;1267;20035;-39
2023/10/13 00:48:43;;;;;;;;;2.00;1.00;;;;;22.38;49.30;100874.26;109989;1267;18218;-39
2023/10/13 00:51:18;;;;;;;;;2.00;2.00;;;;;22.38;49.17;100871.96;110079;1252;19345;-39
2023/10/13 00:53:47;;;;;;;;;2.00;2.00;;;;;22.40;49.02;100873.16;110006;1253;20194;-39
2023/10/13 00:56:19;;;;;;;;;1.00;1.00;;;;;22.36;49.21;100872.84;110040;1253;19714;-39
2023/10/13 00:58:50;;;;;;;;;2.00;2.00;;;;;22.37;49.17;100873.11;110025;1267;17918;-40
2023/10/13 01:01:21;;;;;;;;;2.00;2.00;;;;;22.39;49.06;100869.94;110018;1252;20170;-39
2023/10/13 01:03:49;;;;;;;;;2.00;2.00;;;;;22.40;48.99;100864.31;110001;1251;19602;-39
2023/10/13 01:06:16;;;;;;;;;3.33;3.33;;;;;22.36;48.96;100859.69;110006;1267;19313;-39
2023/10/13 01:08:45;;;;;;;;;1.00;1.00;;;;;22.36;49.16;100863.61;110029;1267;19927;-39
2023/10/13 01:11:13;;;;;;;;;2.00;1.00;;;;;22.38;48.93;100868.03;110013;1254;19676;-38
2023/10/13 01:13:41;;;;;;;;;2.00;2.00;;;;;22.39;49.03;100872.77;109995;1252;19341;-39
2023/10/13 01:16:10;;;;;;;;;1.00;1.00;;;;;22.39;48.99;100878.01;110019;1252;19895;-40
2023/10/13 01:18:48;;;;;;;;;1.00;1.00;;;;;22.38;48.99;100880.70;110015;1251;19498;-39
2023/10/13 01:21:19;;;;;;;;;2.00;2.00;;;;;22.36;49.00;100885.02;110060;1266;19366;-39
2023/10/13 01:23:47;;;;;;;;;1.00;1.00;;;;;22.38;48.81;100880.42;110080;1253;20100;-39
2023/10/13 01:26:21;;;;;;;;;1.00;1.00;;;;;22.38;48.69;100883.58;110052;1251;19582;-39
2023/10/13 01:28:50;;;;;;;;;2.00;2.00;;;;;22.36;48.74;100887.96;110060;1259;19139;-39
2023/10/13 01:31:27;;;;;;;;;2.00;2.00;;;;;22.37;48.77;100891.39;109917;1253;19989;-40
2023/10/13 01:33:57;;;;;;;;;2.00;2.00;;;;;22.35;48.66;100894.02;110064;1253;21085;-38
2023/10/13 01:36:24;;;;;;;;;1.67;1.00;;;;;22.36;49.04;100897.73;110064;1260;21672;-39
2023/10/13 01:38:53;;;;;;;;;1.50;1.50;;;;;22.34;48.79;100901.45;110007;1251;19875;-39
2023/10/13 01:41:20;;;;;;;;;1.00;1.00;;;;;22.33;48.76;100895.94;110051;1251;19666;-39
2023/10/13 01:43:48;;;;;;;;;2.00;2.00;;;;;22.34;48.70;100892.05;110056;1251;21644;-39
2023/10/13 01:46:19;;;;;;;;;4.00;2.00;;;;;22.34;48.78;100886.92;110041;1260;19894;-39
2023/10/13 01:48:46;;;;;;;;;2.00;2.00;;;;;22.33;48.99;100889.34;110046;1266;18158;-39
2023/10/13 01:54:17;;;;;;;;;1.00;1.00;;;;;22.34;48.58;100874.05;110022;1266;20092;-39
2023/10/13 01:56:44;;;;;;;;;2.00;2.00;;;;;22.32;48.57;100869.63;110056;1266;18220;-39
2023/10/13 01:59:12;;;;;;;;;1.00;1.00;;;;;22.32;48.69;100868.05;110028;1251;19084;-40
2023/10/13 02:01:39;;;;;;;;;2.00;2.00;;;;;22.34;48.65;100866.63;110050;1253;19990;-39
2023/10/13 02:04:07;;;;;;;;;1.00;1.00;;;;;22.33;48.68;100863.19;110039;1263;19567;-39
2023/10/13 02:06:36;;;;;;;;;2.00;2.00;;;;;22.36;48.48;100867.00;109951;1251;19366;-38
2023/10/13 02:09:12;;;;;;;;;2.00;1.00;;;;;22.37;48.46;100870.98;110017;1260;20259;-39
2023/10/13 02:11:40;;;;;;;;;1.00;1.00;;;;;22.37;48.54;100870.11;110021;1253;19715;-40
2023/10/13 02:14:07;;;;;;;;;3.00;3.00;;;;;22.35;48.59;100871.70;110054;1253;19379;-38
2023/10/13 02:16:36;;;;;;;;;1.50;1.50;;;;;22.32;48.67;100872.79;110029;1251;20345;-38
2023/10/13 02:19:04;;;;;;;;;2.00;2.00;;;;;22.35;48.69;100874.21;110002;1266;19395;-39
2023/10/13 02:21:39;;;;;;;;;2.00;2.00;;;;;22.36;48.60;100875.73;110035;1267;19678;-38
2023/10/13 02:24:12;;;;;;;;;2.00;2.00;;;;;22.38;48.40;100874.42;110040;1267;19261;-38
2023/10/13 02:26:40;;;;;;;;;4.00;3.00;;;;;22.36;48.67;100873.55;109999;1267;19826;-39
2023/10/13 02:29:08;;;;;;;;;1.00;1.00;;;;;22.36;48.43;100879.17;110000;1267;19177;-39
2023/10/13 02:31:35;;;;;;;;;2.00;2.00;;;;;22.36;48.26;100882.89;110045;1251;19932;-39
2023/10/13 02:34:06;;;;;;;;;2.00;2.00;;;;;22.33;48.68;100881.91;110024;1267;18294;-40
2023/10/13 02:36:37;;;;;;;;;2.00;2.00;;;;;22.34;48.48;100874.42;110001;1267;19311;-39
2023/10/13 02:39:07;;;;;;;;;2.00;2.00;;;;;22.35;48.28;100865.21;110028;1267;19894;-38
2023/10/13 02:41:36;;;;;;;;;2.00;2.00;;;;;22.33;48.32;100866.08;110030;1267;19544;-38
2023/10/13 02:44:05;;;;;;;;;3.00;2.00;;;;;22.34;48.36;100869.52;110050;1267;17885;-38
2023/10/13 02:46:35;;;;;;;;;4.00;2.00;;;;;22.32;48.28;100876.07;110004;1267;18599;-38
2023/10/13 02:49:09;;;;;;;;;1.33;1.33;;;;;22.37;48.15;100875.62;110013;1267;19629;-39
2023/10/13 02:51:37;;;;;;;;;4.00;3.00;;;;;22.34;48.48;100876.13;110011;1251;19151;-39
2023/10/13 02:54:10;;;;;;;;;1.00;1.00;;;;;22.33;48.15;100874.48;110032;1267;18580;-40
2023/10/13 02:56:37;;;;;;;;;2.00;2.00;;;;;22.33;48.57;100877.10;109916;1267;19572;-38
2023/10/13 02:59:05;;;;;;;;;2.00;2.00;;;;;22.33;48.31;100873.94;110040;1267;17889;-37
2023/10/13 03:01:33;;;;;;;;;3.00;3.00;;;;;22.34;48.33;100872.14;110054;1259;20182;-37
2023/10/13 03:04:01;;;;;;;;;4.00;4.00;;;;;22.33;48.44;100878.19;110050;1267;19537;-37
2023/10/13 03:06:33;;;;;;;;;2.00;2.00;;;;;22.34;48.26;100876.34;110027;1267;19213;-38
2023/10/13 03:09:14;;;;;;;;;2.00;2.00;;;;;22.34;48.27;100874.76;110034;1267;19954;-38
2023/10/13 03:11:48;;;;;;;;;4.00;2.00;;;;;22.30;48.58;100876.79;110007;1267;18235;-39
2023/10/13 03:14:23;;;;;;;;;2.00;2.00;;;;;22.30;48.39;100871.33;110001;1267;19239;-38
2023/10/13 03:16:51;;;;;;;;;2.00;2.00;;;;;22.29;48.21;100865.66;110018;1267;19857;-39
2023/10/13 03:19:19;;;;;;;;;2.00;2.00;;;;;22.29;48.22;100865.05;110022;1266;18230;-39
2023/10/13 03:21:54;;;;;;;;;4.50;4.50;;;;;22.31;48.40;100870.40;110020;1251;19356;-39
2023/10/13 03:24:33;;;;;;;;;4.00;4.00;;;;;22.33;48.13;100871.81;110034;1250;20596;-39
2023/10/13 03:27:08;;;;;;;;;2.00;2.00;;;;;22.29;48.37;100870.67;110024;1251;19727;-39
2023/10/13 03:29:35;;;;;;;;;4.00;4.00;;;;;22.34;48.22;100866.84;110031;1266;19084;-39
2023/10/13 03:32:11;;;;;;;;;4.00;4.00;;;;;22.33;48.09;100870.50;110057;1251;20040;-39
2023/10/13 03:34:41;;;;;;;;;4.00;3.00;;;;;22.30;48.12;100869.86;110053;1251;19598;-39
2023/10/13 03:37:17;;;;;;;;;6.00;5.50;;;;;22.29;48.05;100870.73;110038;1266;18327;-39
2023/10/13 03:39:45;;;;;;;;;5.00;5.00;;;;;22.29;48.06;100874.71;110036;1260;20076;-39
2023/10/13 03:42:18;;;;;;;;;5.00;5.00;;;;;22.27;48.02;100874.50;110040;1251;19618;-40
2023/10/13 03:44:46;;;;;;;;;5.00;4.00;;;;;22.32;47.95;100875.41;110041;1251;17813;-39
2023/10/13 03:47:26;;;;;;;;;4.00;4.00;;;;;22.31;48.05;100881.48;110025;1266;19934;-39
2023/10/13 03:50:14;;;;;;;;;5.00;5.00;;;;;22.32;47.90;100876.77;110028;1251;22435;-39
2023/10/13 03:52:40;;;;;;;;;5.50;5.50;;;;;22.29;48.11;100877.89;110014;1251;19729;-39
2023/10/13 03:55:16;;;;;;;;;6.00;5.00;;;;;22.31;47.91;100873.30;110025;1262;20018;-39
2023/10/13 03:57:45;;;;;;;;;4.50;4.50;;;;;22.27;47.98;100874.01;110031;1266;18230;-38
2023/10/13 04:00:21;;;;;;;;;5.00;5.00;;;;;22.30;48.08;100870.35;109927;1251;19308;-38
2023/10/13 04:02:54;;;;;;;;;6.00;6.00;;;;;22.29;48.08;100873.89;110045;1251;20025;-39
2023/10/13 04:05:36;;;;;;;;;4.00;4.00;;;;;22.29;47.81;100886.06;110044;1250;19644;-38
2023/10/13 04:16:34;;;;;;;;;5.50;5.50;;;;;22.30;47.79;100869.96;109313;1255;19400;-39
2023/10/13 04:19:09;;;;;;;;;4.00;4.00;;;;;22.28;47.93;100874.61;109217;1270;19981;-38
2023/10/13 04:21:55;;;;;;;;;5.00;5.00;;;;;22.38;47.97;100879.83;109127;1255;19656;-39
2023/10/13 04:27:39;;;;;;;;;5.00;5.00;;;;;22.36;48.37;100884.58;109099;1265;18571;-39
2023/10/13 04:30:24;;;;;;;;;6.00;6.00;;;;;22.38;49.26;100893.03;109105;1255;20306;-38
2023/10/13 04:35:36;;;;;;;;;5.00;5.00;;;;;22.39;51.68;100881.89;109368;1256;20234;-40
2023/10/13 04:38:18;;;;;;;;;5.50;5.50;;;;;22.43;52.15;100877.95;109417;1254;19708;-39
2023/10/13 04:40:58;;;;;;;;;5.00;5.00;;;;;22.39;52.46;100881.56;109395;1254;19067;-39
2023/10/13 04:43:54;;;;;;;;;6.00;6.00;;;;;22.37;52.07;100878.02;109376;1262;20165;-39
2023/10/13 04:46:35;;;;;;;;;8.33;7.33;;;;;22.40;51.02;100867.21;109354;1262;21243;-39
2023/10/13 04:49:09;;;;;;;;;5.00;5.00;;;;;22.38;50.93;100870.44;109351;1270;19260;-39
2023/10/13 04:51:58;;;;;;;;;5.00;5.00;;;;;22.34;51.43;100868.33;109664;1254;184505;-40
2023/10/13 04:54:34;;;;;;;;;5.00;5.00;;;;;22.30;51.16;100868.60;110056;1266;19554;-39
2023/10/13 05:46:48;;;;;;;;;4.00;4.00;;;;;22.40;50.38;100870.32;108502;1264;19372;-40
2023/10/13 05:49:40;;;;;;;;;;;;;;;22.36;50.46;100869.73;108532;1271;19985;-40
2023/10/13 05:52:18;;;;;;;;;;;;;;;22.35;50.59;100868.04;108441;1263;20921;-40
2023/10/13 06:30:33;;;;;;;;;5.33;5.00;;;;;22.35;49.52;100873.23;110001;1260;20995;-38
2023/10/13 06:33:01;;;;;;;;;8.00;6.00;;;;;22.35;49.30;100867.28;110011;1251;21825;-39
2023/10/13 06:35:28;;;;;;;;;4.00;4.00;;;;;22.35;49.38;100867.98;110025;1251;19482;-39
2023/10/13 06:38:00;;;;;;;;;3.00;3.00;;;;;22.34;49.20;100872.36;110024;1267;18635;-39
2023/10/13 06:40:33;;;;;;;;;4.50;4.00;;;;;22.35;49.31;100868.15;110011;1251;19704;-39
2023/10/13 06:43:12;;;;;;;;;5.50;5.00;;;;;22.33;49.32;100875.08;110028;1251;19500;-39
2023/10/13 06:45:40;;;;;;;;;4.00;4.00;;;;;22.34;49.18;100884.85;110002;1251;21925;-39
2023/10/13 06:48:11;;;;;;;;;4.00;4.00;;;;;22.33;49.01;100895.89;110024;1267;18321;-39
2023/10/13 06:50:41;;;;;;;;;5.00;5.00;;;;;22.30;49.26;100900.48;110005;1267;19284;-38
2023/10/13 06:53:12;;;;;;;;;5.00;5.00;;;;;22.31;49.03;100901.34;110019;1251;20003;-40
2023/10/13 06:55:40;;;;;;;;;4.00;4.00;;;;;22.31;49.14;100891.52;110022;1267;18225;-40
2023/10/13 06:58:13;;;;;;;;;4.50;3.00;;;;;22.33;49.02;100892.89;109982;1251;19325;-39
2023/10/13 07:00:41;;;;;;;;;4.00;4.00;;;;;22.31;48.90;100894.47;110007;1251;19996;-40
2023/10/13 07:03:17;;;;;;;;;4.00;4.00;;;;;22.29;48.98;100886.40;110001;1251;19730;-39
2023/10/13 07:05:47;;;;;;;;;4.00;4.00;;;;;22.27;49.08;100883.29;109998;1251;19382;-39
2023/10/13 07:08:19;;;;;;;;;2.00;2.00;;;;;22.31;48.89;100879.24;110001;1251;21920;-40
2023/10/13 07:10:48;;;;;;;;;4.33;4.00;;;;;22.30;48.92;100875.48;110026;1251;19658;-39
2023/10/13 07:13:16;;;;;;;;;4.00;4.00;;;;;22.31;48.71;100875.70;109944;1251;19308;-39
2023/10/13 07:15:47;;;;;;;;;2.67;2.67;;;;;22.32;48.73;100872.91;109899;1267;20005;-39
2023/10/13 07:18:16;;;;;;;;;2.67;2.67;;;;;22.30;48.87;100864.83;109991;1251;19636;-39
2023/10/13 07:20:46;;;;;;;;;4.00;4.00;;;;;22.30;48.67;100860.30;109997;1267;17916;-39
2023/10/13 07:23:18;;;;;;;;;4.00;4.00;;;;;22.29;48.90;100857.15;109974;1254;20072;-39
2023/10/13 07:25:45;;;;;;;;;4.00;4.00;;;;;22.36;48.62;100864.27;109991;1267;19592;-39
2023/10/13 07:28:15;;;;;;;;;4.50;4.50;;;;;22.39;48.62;100866.83;109966;1259;23092;-39
2023/10/13 07:30:49;;;;;;;;;4.00;4.00;;;;;22.38;48.58;100864.59;109996;1253;19945;-40
2023/10/13 07:33:19;;;;;;;;;4.00;4.00;;;;;22.37;48.65;100857.88;109991;1252;19643;-40
2023/10/13 07:35:50;;;;;;;;;4.00;4.00;;;;;22.37;48.45;100856.79;110014;1253;19429;-39
2023/10/13 07:38:21;;;;;;;;;6.00;5.50;;;;;22.34;48.43;100858.76;109966;1267;20335;-39
2023/10/13 07:40:51;;;;;;;;;5.00;4.00;;;;;22.37;48.24;100852.36;110003;1252;19642;-39
2023/10/13 07:43:21;;;;;;;;;2.67;2.67;;;;;22.39;48.58;100850.39;109977;1252;21531;-39
2023/10/13 07:45:51;;;;;;;;;3.00;2.00;;;;;22.40;48.47;100847.45;109940;1252;20610;-39
2023/10/13 07:48:20;;;;;;;;;4.00;4.00;;;;;22.40;48.47;100852.47;109964;1254;19705;-39
2023/10/13 07:50:48;;;;;;;;;4.00;4.00;;;;;22.38;48.35;100855.59;109975;1251;19498;-39
2023/10/13 07:53:22;;;;;;;;;4.00;4.00;;;;;22.38;48.55;100851.27;109987;1267;18581;-39
2023/10/13 07:55:54;;;;;;;;;2.00;2.00;;;;;22.37;48.28;100850.84;109926;1252;19711;-40
2023/10/13 07:58:24;;;;;;;;;4.00;4.00;;;;;22.38;48.21;100848.82;109933;1251;19233;-39
2023/10/13 08:01:06;;;;;;;;;4.00;4.00;;;;;22.42;48.19;100846.13;109941;1254;19977;-40
2023/10/13 08:03:43;;;;;;;;;4.00;4.00;;;;;22.39;48.31;100842.59;109965;1261;19954;-39
2023/10/13 08:06:19;;;;;;;;;4.50;4.50;;;;;22.38;49.00;100838.61;110047;1251;19461;-38
2023/10/13 08:08:49;;;;;;;;;9.00;9.00;;;;;22.35;48.83;100834.64;110045;1251;19958;-38
2023/10/13 08:11:24;;;;;;;;;13.00;11.67;;;;;22.34;47.37;100830.33;110042;1266;18281;-38
2023/10/13 08:13:55;;;;;;;;;16.00;13.00;;;;;22.20;46.43;100823.39;110052;1251;18115;-38
2023/10/13 08:16:27;;;;;;;;;12.00;12.00;;;;;22.14;45.46;100814.47;110034;1266;18592;-39
2023/10/13 08:18:54;;;;;;;;;12.67;12.00;;;;;22.04;45.90;100803.36;110010;1266;18614;-40
2023/10/13 08:21:22;;;;;;;;;13.00;13.00;;;;;21.97;45.71;100787.91;110014;1253;21967;-39
2023/10/13 08:24:05;;;;;;;;;17.00;14.50;;;;;21.91;45.40;100778.23;110044;1261;20019;-39
2023/10/13 08:35:09;;;;;;;;;12.00;11.00;;;;;21.85;45.10;100776.27;109341;1256;20109;-39
2023/10/13 08:37:59;;;;;;;;;11.50;11.00;;;;;21.95;45.22;100771.28;109367;1254;19671;-39
2023/10/13 08:41:25;;;;;;;;;9.00;8.00;;;;;21.99;45.39;100771.48;109402;1270;18803;-39
2023/10/13 08:43:43;;;;;;;;;8.50;8.00;;;;;22.05;45.54;100774.98;109426;1254;20019;-39
2023/10/13 08:46:24;;;;;;;;;9.00;8.50;;;;;22.09;45.45;100770.83;109409;1254;19376;-39
2023/10/13 08:48:51;;;;;;;;;7.50;7.50;;;;;22.10;45.70;100771.64;109391;1262;19864;-39
2023/10/13 08:51:31;;;;;;;;;10.50;10.00;;;;;22.13;45.89;100771.90;109432;1270;18194;-39
2023/10/13 08:53:58;;;;;;;;;6.00;6.00;;;;;22.14;45.65;100767.59;109355;1255;19689;-39
2023/10/13 08:56:34;;;;;;;;;8.00;8.00;;;;;22.16;45.72;100767.15;109374;1256;20036;-39
2023/10/13 08:59:09;;;;;;;;;8.00;6.00;;;;;22.17;45.77;100768.50;109391;1256;20034;-39
2023/10/13 09:01:45;;;;;;;;;6.00;6.00;;;;;22.19;45.98;100771.55;109355;1270;17771;-39
2023/10/13 09:04:21;;;;;;;;;6.00;6.00;;;;;22.17;46.17;100767.09;109317;1270;18563;-38
2023/10/13 09:07:00;;;;;;;;;6.00;5.50;;;;;22.18;46.05;100765.06;109327;1262;21367;-38
2023/10/13 09:09:34;;;;;;;;;6.00;6.00;;;;;22.21;45.97;100760.96;109396;1256;19581;-38
2023/10/13 09:12:08;;;;;;;;;8.00;6.00;;;;;22.21;46.19;100765.98;109616;1266;19911;-38
2023/10/13 09:14:38;;;;;;;;;8.33;6.00;;;;;22.22;46.43;100763.20;110045;1251;19664;-38
2023/10/13 09:17:12;;;;;;;;;5.00;5.00;;;;;22.20;46.29;100765.65;110007;1266;17926;-38
2023/10/13 09:19:45;;;;;;;;;4.00;4.00;;;;;22.19;46.41;100768.94;109997;1266;18743;-38
2023/10/13 09:22:24;;;;;;;;;6.00;5.00;;;;;22.21;46.32;100770.13;109997;1253;18228;-41
2023/10/13 09:24:52;;;;;;;;;5.00;4.00;;;;;22.23;46.51;100769.35;109983;1253;19300;-39
2023/10/13 09:27:19;;;;;;;;;4.00;4.00;;;;;22.23;46.66;100771.27;110001;1259;19852;-39
2023/10/13 09:29:52;;;;;;;;;6.00;6.00;;;;;22.24;46.82;100767.16;110028;1266;18394;-39
2023/10/13 09:32:21;;;;;;;;;8.00;6.00;;;;;22.27;46.56;100764.70;110005;1251;17945;-40
2023/10/13 09:34:50;;;;;;;;;5.50;5.50;;;;;22.23;46.90;100757.62;110021;1266;19937;-39
2023/10/13 09:37:21;;;;;;;;;4.00;4.00;;;;;22.20;46.74;100763.09;110011;1263;18849;-39
2023/10/13 09:39:52;;;;;;;;;5.50;5.00;;;;;22.22;46.92;100760.84;109969;1253;19332;-39
2023/10/13 09:42:23;;;;;;;;;5.00;4.50;;;;;22.22;47.23;100762.81;109979;1251;18575;-39
2023/10/13 09:44:58;;;;;;;;;5.67;5.67;;;;;22.22;47.20;100754.90;109974;1253;20913;-39
2023/10/13 09:47:32;;;;;;;;;5.00;4.00;;;;;22.21;47.25;100749.88;109980;1266;17942;-39
2023/10/13 09:50:03;;;;;;;;;5.00;5.00;;;;;22.19;47.41;100744.66;109996;1266;18455;-39
2023/10/13 09:52:30;;;;;;;;;5.00;5.00;;;;;22.20;47.54;100738.10;110001;1253;22470;-39
2023/10/13 09:55:01;;;;;;;;;5.00;5.00;;;;;22.21;47.53;100737.82;110005;1251;19436;-39
2023/10/13 09:57:34;;;;;;;;;5.00;5.00;;;;;22.20;47.63;100735.32;110025;1253;20218;-39
2023/10/13 10:00:06;;;;;;;;;5.00;4.00;;;;;22.21;47.65;100732.86;110068;1253;19650;-39
2023/10/13 10:02:33;;;;;;;;;5.00;4.00;;;;;22.21;47.70;100727.61;110076;1251;19378;-39
2023/10/13 10:05:13;;;;;;;;;2.67;2.00;;;;;22.20;47.72;100717.20;110024;1259;19957;-39
2023/10/13 10:07:43;;;;;;;;;4.00;4.00;;;;;22.19;47.54;100707.86;110064;1266;20245;-39
2023/10/13 10:10:11;;;;;;;;;5.00;4.00;;;;;22.18;47.61;100699.64;110018;1266;19105;-39
2023/10/13 10:12:38;;;;;;;;;5.00;4.00;;;;;22.22;47.56;100698.59;110023;1266;19377;-39
2023/10/13 10:15:06;;;;;;;;;5.00;5.00;;;;;22.22;47.67;100695.80;110002;1266;21720;-39
2023/10/13 10:17:33;;;;;;;;;4.00;4.00;;;;;22.15;47.98;100692.95;110005;1261;19169;-39
2023/10/13 10:20:06;;;;;;;;;6.50;5.50;;;;;22.13;48.27;100687.33;110018;1253;18551;-39
2023/10/13 10:22:35;;;;;;;;;9.00;8.00;;;;;22.15;48.09;100683.23;109966;1250;19718;-39
2023/10/13 10:25:03;;;;;;;;;8.00;8.00;;;;;22.13;48.01;100685.54;109917;1253;19532;-40
2023/10/13 10:27:30;;;;;;;;;8.00;6.00;;;;;22.11;48.06;100684.89;109957;1251;18571;-38
2023/10/13 10:29:58;;;;;;;;;8.67;7.00;;;;;22.01;48.34;100680.88;109949;1261;19828;-39
2023/10/13 10:32:25;;;;;;;;;8.50;8.00;;;;;21.98;48.44;100669.31;109968;1266;17884;-39
2023/10/13 10:34:52;;;;;;;;;8.00;6.00;;;;;22.09;48.62;100664.88;109968;1253;20099;-40
2023/10/13 10:37:20;;;;;;;;;6.00;5.00;;;;;22.07;48.80;100660.69;109936;1266;18235;-38
2023/10/13 10:39:49;;;;;;;;;5.00;5.00;;;;;22.09;49.10;100657.95;109986;1266;17916;-38
2023/10/13 10:42:18;;;;;;;;;5.00;5.00;;;;;22.10;49.15;100650.25;109986;1253;20181;-39
2023/10/13 10:44:48;;;;;;;;;5.00;5.00;;;;;22.12;49.29;100653.46;110017;1251;20589;-39
2023/10/13 10:47:19;;;;;;;;;6.00;5.00;;;;;22.17;49.04;100647.80;110005;1261;19203;-40
2023/10/13 10:49:47;;;;;;;;;4.00;4.00;;;;;22.16;49.58;100644.70;110053;1251;21225;-40
2023/10/13 10:52:18;;;;;;;;;8.00;6.00;;;;;22.13;50.07;100640.20;110029;1251;20818;-40
2023/10/13 10:54:51;;;;;;;;;7.00;6.00;;;;;22.17;49.99;100633.14;110032;1253;19346;-40
2023/10/13 10:57:18;;;;;;;;;4.00;4.00;;;;;22.21;49.79;100624.86;110004;1251;18573;-39
2023/10/13 10:59:46;;;;;;;;;5.33;5.00;;;;;22.21;50.12;100618.76;109995;1253;20407;-40
2023/10/13 11:02:18;;;;;;;;;4.50;4.50;;;;;22.19;50.02;100616.64;110017;1266;17890;-40
2023/10/13 11:04:51;;;;;;;;;5.00;5.00;;;;;22.21;49.85;100611.61;110044;1258;19839;-40
2023/10/13 11:07:19;;;;;;;;;4.00;4.00;;;;;22.19;50.29;100600.93;109995;1266;18247;-40
2023/10/13 11:09:47;;;;;;;;;5.00;4.67;;;;;22.18;50.17;100591.88;110014;1253;19305;-40
2023/10/13 11:12:23;;;;;;;;;4.00;4.00;;;;;22.24;49.71;100593.30;110006;1266;18692;-39
2023/10/13 11:14:51;;;;;;;;;4.00;3.33;;;;;22.23;50.42;100592.49;110047;1259;19522;-39
2023/10/13 11:17:24;;;;;;;;;5.00;4.00;;;;;22.23;50.75;100591.84;110019;1253;19550;-40
2023/10/13 11:19:51;;;;;;;;;4.00;4.00;;;;;22.25;50.65;100589.36;110023;1266;18530;-40
2023/10/13 11:22:33;;;;;;;;;5.00;5.00;;;;;22.27;50.48;100581.39;110021;1250;20803;-40
2023/10/13 11:25:00;;;;;;;;;4.00;4.00;;;;;22.34;50.37;100575.44;110030;1251;19278;-39
2023/10/13 11:27:43;;;;;;;;;4.00;4.00;;;;;22.31;50.26;100575.29;110014;1251;20216;-39
2023/10/13 11:30:14;;;;;;;;;5.00;4.00;;;;;22.28;50.73;100567.08;109982;1266;18212;-39
2023/10/13 11:32:42;;;;;;;;;6.00;6.00;;;;;22.32;50.62;100558.33;109943;1250;19101;-41
2023/10/13 11:35:20;;;;;;;;;8.00;5.00;;;;;22.32;50.49;100561.92;110067;1250;20014;-39
2023/10/13 11:37:56;;;;;;;;;6.00;5.00;;;;;22.30;51.01;100557.69;110037;1250;19665;-39
2023/10/13 11:40:43;;;;;;;;;8.00;5.33;;;;;22.29;50.45;100550.54;110051;1259;19375;-39
2023/10/13 11:43:14;;;;;;;;;6.00;6.00;;;;;22.29;50.49;100546.50;110033;1250;19990;-39
2023/10/13 11:45:55;;;;;;;;;9.00;9.00;;;;;22.27;50.53;100542.81;110048;1259;19750;-39
2023/10/13 11:48:34;;;;;;;;;5.00;5.00;;;;;22.29;50.52;100531.55;110025;1250;19321;-40
2023/10/13 11:51:05;;;;;;;;;7.00;7.00;;;;;22.27;50.39;100530.52;110025;1260;20091;-39
2023/10/13 11:53:32;;;;;;;;;6.00;5.50;;;;;22.26;50.40;100536.05;110046;1259;19566;-40
2023/10/13 11:56:00;;;;;;;;;8.00;6.00;;;;;22.25;50.51;100527.70;110054;1266;17905;-41
2023/10/13 11:58:28;;;;;;;;;6.00;5.00;;;;;22.24;50.30;100526.34;110048;1266;19091;-40
2023/10/13 12:01:08;;;;;;;;;6.00;6.00;;;;;22.30;50.21;100525.31;110078;1250;19886;-39
2023/10/13 12:06:33;;;;;;;;;6.00;6.00;;;;;22.24;50.46;100533.01;110010;1251;19978;-39
2023/10/13 12:09:19;;;;;;;;;10.50;10.00;;;;;22.27;50.36;100542.98;109933;1250;19693;-39
2023/10/13 12:11:48;;;;;;;;;11.00;11.00;;;;;22.26;50.71;100539.77;110073;1250;19618;-39
2023/10/13 12:14:19;;;;;;;;;8.00;8.00;;;;;22.24;50.66;100533.61;110080;1250;20009;-39
2023/10/13 12:16:48;;;;;;;;;9.00;9.00;;;;;22.25;50.79;100529.67;110068;1266;19504;-39
2023/10/13 12:19:16;;;;;;;;;13.00;9.00;;;;;22.17;51.06;100529.41;110004;1250;22017;-39
2023/10/13 12:21:44;;;;;;;;;11.00;11.00;;;;;22.16;51.21;100528.16;110059;1266;19828;-40
2023/10/13 12:24:22;;;;;;;;;9.00;9.00;;;;;22.15;51.34;100520.48;109922;1250;20061;-38
2023/10/13 12:26:55;;;;;;;;;10.00;8.67;;;;;22.14;51.24;100516.72;110030;1253;19326;-38
2023/10/13 12:29:23;;;;;;;;;13.00;13.00;;;;;22.14;51.25;100503.84;110067;1253;20168;-39
2023/10/13 12:32:01;;;;;;;;;13.00;12.50;;;;;22.17;51.01;100497.21;110011;1266;19396;-39
2023/10/13 12:34:57;;;;;;;;;12.00;11.00;;;;;22.16;51.23;100485.16;110045;1251;19501;-39
2023/10/13 12:37:38;;;;;;;;;12.50;12.00;;;;;22.17;51.15;100475.66;110052;1266;18556;-40
2023/10/13 12:51:19;;;;;;;;;9.00;9.00;;;;;22.16;52.08;100451.17;110043;1253;19272;-39
2023/10/13 12:53:47;;;;;;;;;102.00;74.00;;;;;22.18;52.36;100450.01;110067;1251;19944;-39
2023/10/13 12:56:15;;;;;;;;;288.00;207.00;;;;;22.17;53.08;100450.02;110058;1266;18154;-40
2023/10/13 12:58:51;;;;;;;;;387.00;274.67;;;;;22.21;53.22;100448.63;110028;1253;20096;-39
2023/10/13 13:01:20;;;;;;;;;368.00;260.00;;;;;22.20;53.51;100443.27;110054;1251;18579;-39
2023/10/13 13:03:48;;;;;;;;;306.50;214.00;;;;;22.23;53.70;100442.38;110030;1266;18958;-39
2023/10/13 13:06:17;;;;;;;;;240.00;178.00;;;;;22.22;53.82;100440.37;110047;1251;20056;-39
2023/10/13 13:08:46;;;;;;;;;253.00;189.00;;;;;22.19;53.71;100436.35;110002;1260;19892;-39
2023/10/13 13:11:13;;;;;;;;;189.00;150.00;;;;;22.21;53.40;100432.09;109993;1251;20636;-39
2023/10/13 13:13:41;;;;;;;;;168.50;128.50;;;;;22.22;53.60;100426.08;109921;1253;20080;-39
2023/10/13 13:16:09;;;;;;;;;160.00;118.50;;;;;22.26;53.44;100424.28;110022;1251;22919;-40
2023/10/13 13:18:36;;;;;;;;;144.67;110.00;;;;;22.30;53.75;100413.28;110012;1260;20464;-40
2023/10/13 13:21:06;;;;;;;;;;;;;;;22.30;53.49;100407.93;109998;1252;19960;-38
2023/10/13 13:23:34;;;;;;;;;103.00;71.00;;;;;22.28;53.56;100406.10;109938;1253;20768;-40
2023/10/13 13:26:01;;;;;;;;;101.50;73.00;;;;;22.28;53.64;100402.23;110003;1251;17844;-38
2023/10/13 13:28:29;;;;;;;;;91.00;66.00;;;;;22.28;53.58;100394.36;109976;1251;20058;-40
2023/10/13 13:31:07;;;;;;;;;90.50;65.00;;;;;22.29;53.51;100387.74;109968;1252;20022;-40
2023/10/13 13:33:38;;;;;;;;;90.00;66.00;;;;;22.28;53.78;100383.49;110012;1254;20046;-41
2023/10/13 13:36:05;;;;;;;;;78.00;58.00;;;;;22.29;53.86;100374.16;110022;1261;19521;-38
2023/10/13 13:38:33;;;;;;;;;75.50;53.00;;;;;22.31;53.57;100367.59;109979;1252;19803;-39
2023/10/13 13:41:01;;;;;;;;;78.00;57.00;;;;;22.37;53.19;100357.81;109991;1253;20057;-38